Flight Track Log - Related Links

Times and Time Zones

All times are in EDT time to prevent confusion due to time zone crossing. See the OPT429 flight status page for this flight to view local times or setup timezone preferences in your user account.

Time Position Orientation Groundspeed Altitude Reporting Facility
EDT Latitude Longitude Course Direction KTS MPH feet Rate Location/Type
Sun 11:25:23 AM 26.2153 -81.7289 North 168 193 4,100  Level Miami Center
Sun 11:26:26 AM 26.2639 -81.7283 North 174 200 6,400 1,920 Climbing Miami Center
Sun 11:27:28 AM 26.3336 -81.7286 360° North 240 276 8,100 1,984 Climbing Miami Center
Sun 11:28:30 AM 26.4103 -81.7300 359° North 278 320 10,500 2,400 Climbing Miami Center
Sun 11:29:33 AM 26.4950 -81.7317 359° North 284 327 13,100 2,256 Climbing Miami Center
Sun 11:30:00 AM 26.7513 -81.7500 North  Level FlightAware Approximate
Sun 11:30:35 AM 26.5861 -81.7325 360° North 314 361 15,200  Level Miami Center
Sun 11:31:37 AM 26.6733 -81.7361 358° North 322 371 16,900 1,548 Climbing Miami Center
Sun 11:32:39 AM 26.7619 -81.7386 359° North 335 386 18,400 1,536 Climbing Miami Center
Sun 11:33:42 AM 26.8578 -81.7411 359° North 341 392 20,100 1,824 Climbing Miami Center
Sun 11:34:44 AM 26.9736 -81.7442 359° North 346 398 22,200 1,403 Climbing Miami Center
Sun 11:35:46 AM 27.0744 -81.7631 351° North 361 415 23,000 1,306 Climbing Miami Center
Sun 11:36:48 AM 27.1828 -81.7978 344° North 384 442 24,900 2,256 Climbing Miami Center
Sun 11:37:51 AM 27.2761 -81.8281 344° North 338 389 27,700 1,824 Climbing Miami Center
Sun 11:38:53 AM 27.3697 -81.8600 343° North 335 386 28,700 629 Climbing Miami Center
Sun 11:39:55 AM 27.4750 -81.8978 342° North 373 429 29,000 960 Climbing Miami Center
Sun 11:40:58 AM 27.5875 -81.9211 350° North 389 448 30,700 960 Climbing Miami Center
Sun 11:42:00 AM 27.6953 -81.8625 26° Northeast 419 482 31,000 145 Climbing Miami Center
Sun 11:43:02 AM 27.8083 -81.7931 29° Northeast 441 507 31,000 871 Level Miami Center
Sun 11:44:04 AM 27.9017 -81.7350 29° Northeast 433 498 32,800 960 Climbing Miami Center
Sun 11:45:07 AM 28.0181 -81.7147 North 432 497 33,000 432 Climbing Miami Center
Sun 11:46:09 AM 28.1436 -81.7039 North 443 510 33,700 1,016 Climbing Miami Center
Sun 11:47:11 AM 28.2906 -81.6917 North 439 505 35,100 1,200 Climbing Miami Center
Sun 11:48:14 AM 28.4106 -81.6806 North 434 499 36,200 1,056 Climbing Miami Center
Sun 11:49:16 AM 28.5294 -81.6703 North 429 494 37,300 1,041 Climbing Miami Center
Sun 11:49:52 AM 28.5989 -81.6678 North 425 489 37,900 1,063 Climbing Jacksonville Center
Sun 11:50:52 AM 28.7136 -81.6569 North 418 481 39,000 950 Climbing Jacksonville Center
Sun 11:51:52 AM 28.8347 -81.6458 North 413 475 39,800 700 Climbing Jacksonville Center
Sun 11:52:52 AM 28.9472 -81.6375 North 408 470 40,400 550 Climbing Jacksonville Center
Sun 11:53:52 AM 29.0639 -81.6242 North 408 470 40,900 300 Climbing Jacksonville Center
Sun 11:54:52 AM 29.1767 -81.6131 North 408 470 41,000 50 Climbing Jacksonville Center
Sun 11:55:52 AM 29.2956 -81.6067 North 408 470 41,000  Level Jacksonville Center
Sun 11:56:52 AM 29.4122 -81.5933 North 413 475 41,000  Level Jacksonville Center
Sun 11:57:52 AM 29.5356 -81.6036 356° North 420 483 41,000  Level Jacksonville Center
Sun 11:58:52 AM 29.6547 -81.6211 353° North 426 490 41,000  Level Jacksonville Center
Sun 11:59:52 AM 29.7781 -81.6364 354° North 426 490 41,000  Level Jacksonville Center
Sun 12:01:43 PM 29.9950 -81.6631 354° North 437 503 41,000  Level Miami Center
Sun 12:02:46 PM 30.1156 -81.6781 354° North 437 503 41,000  Level Miami Center
Sun 12:03:52 PM 30.2608 -81.6900 356° North 431 496 41,000  Level Jacksonville Center
Sun 12:04:52 PM 30.3864 -81.7078 353° North 437 503 41,000  Level Jacksonville Center
Sun 12:05:52 PM 30.4908 -81.7258 352° North 435 501 41,000  Level Jacksonville Center
Sun 12:06:52 PM 30.6164 -81.7436 353° North 440 506 41,000  Level Jacksonville Center
Sun 12:07:52 PM 30.7356 -81.7614 353° North 440 506 41,000  Level Jacksonville Center
Sun 12:08:52 PM 30.8567 -81.7769 354° North 435 501 41,000  Level Jacksonville Center
Sun 12:09:52 PM 30.9739 -81.7950 352° North 435 501 41,000  Level Jacksonville Center
Sun 12:10:52 PM 31.0950 -81.8081 355° North 435 501 41,000  Level Jacksonville Center
Sun 12:11:52 PM 31.2161 -81.8236 354° North 435 501 41,000  Level Jacksonville Center
Sun 12:12:52 PM 31.3394 -81.8442 352° North 435 501 41,000  Level Jacksonville Center
Sun 12:13:52 PM 31.4711 -81.8597 354° North 428 493 41,000  Level Jacksonville Center
Sun 12:16:53 PM 31.8408 -81.9072 353° North 447 514 41,000  Level Atlanta Center
Sun 12:17:53 PM 31.9456 -81.9217 353° North 435 501 41,000  Level Atlanta Center
Sun 12:18:53 PM 32.0772 -81.9406 353° North 440 506 41,000  Level Atlanta Center
Sun 12:19:53 PM 32.1922 -81.9550 354° North 434 499 41,000  Level Atlanta Center
Sun 12:20:53 PM 32.3075 -81.9697 354° North 424 488 41,000  Level Atlanta Center
Sun 12:21:53 PM 32.4308 -81.9839 354° North 432 497 41,000  Level Atlanta Center
Sun 12:22:53 PM 32.5522 -82.0008 353° North 437 503 41,000  Level Atlanta Center
Sun 12:23:53 PM 32.6711 -81.9981 North 437 503 41,000  Level Atlanta Center
Sun 12:24:53 PM 32.7919 -81.9953 North 432 497 41,000  Level Atlanta Center
Sun 12:25:53 PM 32.9150 -81.9900 North 432 497 41,000  Level Atlanta Center
Sun 12:26:53 PM 33.0361 -81.9847 North 432 497 41,000  Level Atlanta Center
Sun 12:27:53 PM 33.1572 -81.9842 360° North 432 497 41,000  Level Atlanta Center
Sun 12:28:53 PM 33.2781 -81.9814 North 437 503 41,000  Level Atlanta Center
Sun 12:29:53 PM 33.3992 -81.9736 North 437 503 41,000  Level Atlanta Center
Sun 12:30:53 PM 33.5222 -81.9706 North 437 503 41,000  Level Atlanta Center
Sun 12:31:53 PM 33.6578 -81.9672 North 443 510 41,000  Level Atlanta Center
Sun 12:32:53 PM 33.7789 -81.9644 North 438 504 41,000  Level Atlanta Center
Sun 12:33:53 PM 33.8997 -81.9589 North 438 504 41,000  Level Atlanta Center
Sun 12:34:53 PM 34.0208 -81.9536 North 438 504 41,000  Level Atlanta Center
Sun 12:35:53 PM 34.1439 -81.9531 360° North 438 504 41,000  Level Atlanta Center
Sun 12:36:53 PM 34.2669 -81.9500 North 438 504 41,000  Level Atlanta Center
Sun 12:37:53 PM 34.3858 -81.9444 North 438 504 41,000  Level Atlanta Center
Sun 12:38:53 PM 34.5069 -81.9442 360° North 438 504 41,000  Level Atlanta Center
Sun 12:40:53 PM 34.7489 -81.9356 North 425 489 41,000  Level Atlanta Center
Sun 12:41:53 PM 34.8531 -81.9378 359° North 418 481 41,000  Level Atlanta Center
Sun 12:42:53 PM 34.9742 -81.9350 North 418 481 41,000  Level Atlanta Center
Sun 12:43:53 PM 35.0931 -81.9394 358° North 424 488 41,000  Level Atlanta Center
Sun 12:44:53 PM 35.2103 -81.9542 354° North 424 488 41,000  Level Atlanta Center
Sun 12:45:53 PM 35.3294 -81.9667 355° North 424 488 41,000  Level Atlanta Center
Sun 12:46:53 PM 35.4464 -81.9814 354° North 424 488 41,000  Level Atlanta Center
Sun 12:47:53 PM 35.5614 -81.9964 354° North 424 488 41,000  Level Atlanta Center
Sun 12:48:53 PM 35.6744 -82.0089 355° North 419 482 41,000  Level Atlanta Center
Sun 12:49:53 PM 35.7914 -82.0214 355° North 419 482 41,000  Level Atlanta Center
Sun 12:50:53 PM 35.9022 -82.0392 353° North 414 476 41,000  Level Atlanta Center
Sun 12:51:53 PM 36.0172 -82.0517 355° North 408 470 41,000  Level Atlanta Center
Sun 12:52:53 PM 36.1300 -82.0644 355° North 408 470 41,000  Level Atlanta Center
Sun 12:54:26 PM 36.3158 -82.0833 355° North 410 472 41,000  Level Indianapolis Center
Sun 12:56:31 PM 36.5433 -82.1122 354° North 410 472 41,000  Level Indianapolis Center
Sun 12:57:33 PM 36.6589 -82.1269 354° North 412 474 41,000  Level Indianapolis Center
Sun 12:58:35 PM 36.7725 -82.1408 354° North 412 474 41,000  Level Indianapolis Center
Sun 12:59:37 PM 36.9064 -82.1581 354° North 412 474 41,000  Level Indianapolis Center
Sun 01:00:39 PM 37.0203 -82.1728 354° North 413 475 41,000  Level Indianapolis Center
Sun 01:01:41 PM 37.1350 -82.1847 355° North 413 475 41,000  Level Indianapolis Center
Sun 01:02:43 PM 37.2494 -82.1825 North 413 475 41,000  Level Indianapolis Center
Sun 01:03:45 PM 37.3844 -82.1811 360° North 413 475 41,000 -290 Level Indianapolis Center
Sun 01:04:47 PM 37.5006 -82.1789 North 414 476 40,400 -871 Descending Indianapolis Center
Sun 01:05:49 PM 37.6178 -82.1764 North 417 480 39,200 -1,210 Descending Indianapolis Center
Sun 01:06:51 PM 37.7333 -82.1747 North 417 480 37,900 -1,210 Descending Indianapolis Center
Sun 01:07:53 PM 37.8483 -82.1736 360° North 416 479 36,700 -912 Descending Indianapolis Center
Sun 01:08:56 PM 37.9822 -82.1700 North 416 479 36,000 -432 Descending Indianapolis Center
Sun 01:09:58 PM 38.0947 -82.1683 North 410 472 35,800 -484 Descending Indianapolis Center
Sun 01:11:00 PM 38.2067 -82.1667 North 409 471 35,000 -774 Descending Indianapolis Center
Sun 01:12:02 PM 38.3239 -82.1633 North 415 478 34,200 -484 Descending Indianapolis Center
Sun 01:13:04 PM 38.4431 -82.1636 360° North 419 482 34,000 -97 Descending Indianapolis Center
Sun 01:14:06 PM 38.5592 -82.1622 North 419 482 34,000  Level Indianapolis Center
Sun 01:15:08 PM 38.6719 -82.1594 North 409 471 34,000  Level Indianapolis Center
Sun 01:16:10 PM 38.8064 -82.1569 North 402 463 34,000  Level Indianapolis Center
Sun 01:17:12 PM 38.9172 -82.1544 North 399 459 34,000  Level Indianapolis Center
Sun 01:18:14 PM 39.0269 -82.1525 North 397 457 34,000 -194 Level Indianapolis Center
Sun 01:19:16 PM 39.1364 -82.1503 North 396 456 33,600 -871 Descending Indianapolis Center
Sun 01:20:18 PM 39.2519 -82.1494 360° North 404 465 32,200 -1,344 Descending Indianapolis Center
Sun 01:21:21 PM 39.3739 -82.1458 North 425 489 30,800 -1,392 Descending Indianapolis Center
Sun 01:22:23 PM 39.5039 -82.1442 North 432 497 29,300 -1,403 Descending Indianapolis Center
Sun 01:23:25 PM 39.6236 -82.1406 North 432 497 27,900 -1,065 Descending Indianapolis Center
Sun 01:25:29 PM 39.8778 -82.1364 North 418 481 26,000 -645 Descending Indianapolis Center
Sun 01:26:31 PM 39.9908 -82.1353 360° North 413 475 25,900 -387 Descending Indianapolis Center
Sun 01:27:33 PM 40.1042 -82.1336 North 411 473 25,200 -823 Descending Indianapolis Center
Sun 01:28:35 PM 40.2203 -82.1306 North 412 474 24,200 -581 Descending Indianapolis Center
Sun 01:29:37 PM 40.3408 -82.1281 North 422 486 24,000 -1,492 Descending Indianapolis Center
Sun 01:31:36 PM 40.5478 -82.0389 37° Northeast 408 470 19,700 -2,122 Descending Cleveland Center
Sun 01:32:38 PM 40.6347 -81.9517 37° Northeast 394 453 17,600 -1,742 Descending Cleveland Center
Sun 01:33:40 PM 40.7214 -81.8656 37° Northeast 392 451 16,100 -1,600 Descending Cleveland Center
Sun 01:34:23 PM 40.7936 -81.7950 36° Northeast 389 448 14,800 -1,770 Descending Cleveland Center
Sun 01:34:41 PM 40.8192 -81.7689 38° Northeast 388 447 14,300 -1,521 Descending Cleveland Center
Sun 01:36:49 PM 41.0042 -81.6044 323° Northwest 361 415 11,100 -1,311 Descending Cleveland Center
Sun 01:37:44 PM 41.0825 -81.6447 339° North 315 362 10,300 -590 Descending Cleveland Center
Sun 01:38:51 PM 41.1303 -81.7306 306° West 296 341 9,900 -1,022 Descending Cleveland Center
Sun 01:40:46 PM 41.1581 -81.9181 281° West 267 307 7,200 -1,330 Descending Cleveland Center
Sun 01:41:47 PM 41.1986 -81.9997 303° West 282 325 6,000 -1,268 Descending Cleveland Center
Sun 01:41:57 PM 41.2097 -82.0128 319° Northwest 276 318 5,700 -1,475 Descending Cleveland Center
Sun 01:42:48 PM 41.2494 -82.0636 316° Northwest 244 281 4,500 -1,452 Descending Cleveland Center
Sun 01:42:59 PM 41.2606 -82.0758 320° Northwest 255 293 4,200 -1,400 Descending Cleveland Center
Sun 01:43:48 PM 41.2964 -82.1217 316° Northwest 227 261 3,100 -1,161 Descending Cleveland Center
Sun 01:44:01 PM 41.3078 -82.1336 322° Northwest 240 276 3,000 -480 Descending Cleveland Center
Sun 01:45:03 PM 41.3483 -82.1814 319° Northwest 212 244 2,500 -408 Descending Cleveland Center
Sun 01:45:44 PM 41.3733 -82.1736 13° North 162 186 2,300 -611 Descending Cleveland Center
Sun 01:46:51 PM 41.3597 -82.1406 119° Southeast 109 125 1,400 -714 Descending Cleveland Center
Sun 01:47:08 PM 41.3569 -82.1458 235° Southwest 142 163 1,300 -500 Descending Cleveland Center
Sun 01:48:03 PM 41.3431 -82.1825 243° Southwest 105 121 800 -545 Descending Cleveland Center

Login

Don't have an account? Register now (free) for customized features, flight alerts, and more!